sensor_id;sensor_type;location;lat;lon;timestamp;P1;durP1;ratioP1;P2;durP2;ratioP2
65202;SDS011;51788;45.124;38.966;2023-11-19T00:00:16;4.22;;;3.83;;
65202;SDS011;51788;45.124;38.966;2023-11-19T00:02:43;8.38;;;4.60;;
65202;SDS011;51788;45.124;38.966;2023-11-19T00:05:09;6.15;;;5.18;;
65202;SDS011;51788;45.124;38.966;2023-11-19T00:07:39;5.32;;;4.82;;
65202;SDS011;51788;45.124;38.966;2023-11-19T00:10:09;5.30;;;4.80;;
65202;SDS011;51788;45.124;38.966;2023-11-19T00:12:40;8.70;;;5.32;;
65202;SDS011;51788;45.124;38.966;2023-11-19T00:15:08;7.43;;;5.30;;
65202;SDS011;51788;45.124;38.966;2023-11-19T00:17:39;6.47;;;5.28;;
65202;SDS011;51788;45.124;38.966;2023-11-19T00:20:10;8.13;;;5.85;;
65202;SDS011;51788;45.124;38.966;2023-11-19T00:22:37;6.55;;;5.75;;
65202;SDS011;51788;45.124;38.966;2023-11-19T00:25:03;5.30;;;4.80;;
65202;SDS011;51788;45.124;38.966;2023-11-19T00:27:31;6.53;;;5.93;;
65202;SDS011;51788;45.124;38.966;2023-11-19T00:29:57;5.40;;;4.90;;
65202;SDS011;51788;45.124;38.966;2023-11-19T00:32:23;6.25;;;5.10;;
65202;SDS011;51788;45.124;38.966;2023-11-19T00:34:49;5.53;;;5.03;;
65202;SDS011;51788;45.124;38.966;2023-11-19T00:37:16;6.47;;;5.97;;
65202;SDS011;51788;45.124;38.966;2023-11-19T00:39:42;6.55;;;4.68;;
65202;SDS011;51788;45.124;38.966;2023-11-19T00:42:09;5.18;;;4.78;;
65202;SDS011;51788;45.124;38.966;2023-11-19T00:44:36;6.50;;;6.00;;
65202;SDS011;51788;45.124;38.966;2023-11-19T00:47:02;10.00;;;6.07;;
65202;SDS011;51788;45.124;38.966;2023-11-19T00:49:28;6.18;;;5.47;;
65202;SDS011;51788;45.124;38.966;2023-11-19T00:51:54;19.50;;;5.85;;
65202;SDS011;51788;45.124;38.966;2023-11-19T00:54:20;7.28;;;5.40;;
65202;SDS011;51788;45.124;38.966;2023-11-19T00:56:46;6.13;;;5.18;;
65202;SDS011;51788;45.124;38.966;2023-11-19T00:59:12;6.05;;;5.15;;
65202;SDS011;51788;45.124;38.966;2023-11-19T01:01:39;6.38;;;4.72;;
65202;SDS011;51788;45.124;38.966;2023-11-19T01:04:05;4.55;;;4.15;;
65202;SDS011;51788;45.124;38.966;2023-11-19T01:06:31;5.82;;;5.43;;
65202;SDS011;51788;45.124;38.966;2023-11-19T01:08:58;5.50;;;4.72;;
65202;SDS011;51788;45.124;38.966;2023-11-19T01:11:24;5.85;;;5.45;;
65202;SDS011;51788;45.124;38.966;2023-11-19T01:13:51;5.70;;;5.20;;
65202;SDS011;51788;45.124;38.966;2023-11-19T01:16:17;5.65;;;5.15;;
65202;SDS011;51788;45.124;38.966;2023-11-19T01:18:47;6.40;;;5.80;;
65202;SDS011;51788;45.124;38.966;2023-11-19T01:21:14;6.20;;;5.70;;
65202;SDS011;51788;45.124;38.966;2023-11-19T01:23:41;5.45;;;4.95;;
65202;SDS011;51788;45.124;38.966;2023-11-19T01:26:11;6.03;;;5.40;;
65202;SDS011;51788;45.124;38.966;2023-11-19T01:28:40;6.13;;;5.63;;
65202;SDS011;51788;45.124;38.966;2023-11-19T01:31:08;4.63;;;4.25;;
65202;SDS011;51788;45.124;38.966;2023-11-19T01:33:38;6.05;;;5.55;;
65202;SDS011;51788;45.124;38.966;2023-11-19T01:36:05;6.47;;;5.97;;
65202;SDS011;51788;45.124;38.966;2023-11-19T01:38:31;5.25;;;4.85;;
65202;SDS011;51788;45.124;38.966;2023-11-19T01:40:57;5.85;;;5.32;;
65202;SDS011;51788;45.124;38.966;2023-11-19T01:43:39;6.00;;;5.40;;
65202;SDS011;51788;45.124;38.966;2023-11-19T01:46:08;5.57;;;5.18;;
65202;SDS011;51788;45.124;38.966;2023-11-19T01:48:41;6.85;;;6.25;;
65202;SDS011;51788;45.124;38.966;2023-11-19T01:51:11;8.30;;;5.07;;
65202;SDS011;51788;45.124;38.966;2023-11-19T01:53:38;8.20;;;7.53;;
65202;SDS011;51788;45.124;38.966;2023-11-19T01:56:06;10.90;;;7.75;;
65202;SDS011;51788;45.124;38.966;2023-11-19T01:58:37;7.63;;;6.82;;
65202;SDS011;51788;45.124;38.966;2023-11-19T02:01:08;8.23;;;7.40;;
65202;SDS011;51788;45.124;38.966;2023-11-19T02:03:37;6.72;;;6.13;;
65202;SDS011;51788;45.124;38.966;2023-11-19T02:06:03;8.73;;;7.93;;
65202;SDS011;51788;45.124;38.966;2023-11-19T02:08:30;8.43;;;5.80;;
65202;SDS011;51788;45.124;38.966;2023-11-19T02:10:56;8.57;;;7.60;;
65202;SDS011;51788;45.124;38.966;2023-11-19T02:13:24;8.65;;;7.95;;
65202;SDS011;51788;45.124;38.966;2023-11-19T02:15:50;8.90;;;6.07;;
65202;SDS011;51788;45.124;38.966;2023-11-19T02:18:18;15.95;;;7.55;;
65202;SDS011;51788;45.124;38.966;2023-11-19T02:20:44;7.25;;;6.70;;
65202;SDS011;51788;45.124;38.966;2023-11-19T02:23:11;9.32;;;6.97;;
65202;SDS011;51788;45.124;38.966;2023-11-19T02:25:38;10.13;;;7.55;;
65202;SDS011;51788;45.124;38.966;2023-11-19T02:28:06;7.60;;;6.93;;
65202;SDS011;51788;45.124;38.966;2023-11-19T02:30:32;7.45;;;6.38;;
65202;SDS011;51788;45.124;38.966;2023-11-19T02:32:58;14.07;;;6.82;;
65202;SDS011;51788;45.124;38.966;2023-11-19T02:35:31;7.47;;;6.78;;
65202;SDS011;51788;45.124;38.966;2023-11-19T02:37:58;7.18;;;5.72;;
65202;SDS011;51788;45.124;38.966;2023-11-19T02:42:55;7.18;;;6.65;;
65202;SDS011;51788;45.124;38.966;2023-11-19T02:45:25;7.80;;;5.93;;
65202;SDS011;51788;45.124;38.966;2023-11-19T02:47:52;5.60;;;5.13;;
65202;SDS011;51788;45.124;38.966;2023-11-19T02:50:19;4.78;;;4.38;;
65202;SDS011;51788;45.124;38.966;2023-11-19T02:52:51;8.10;;;6.30;;
65202;SDS011;51788;45.124;38.966;2023-11-19T02:55:18;5.10;;;4.57;;
65202;SDS011;51788;45.124;38.966;2023-11-19T02:57:45;5.47;;;5.00;;
65202;SDS011;51788;45.124;38.966;2023-11-19T03:00:15;8.00;;;4.60;;
65202;SDS011;51788;45.124;38.966;2023-11-19T03:02:42;10.40;;;6.10;;
65202;SDS011;51788;45.124;38.966;2023-11-19T03:05:13;7.88;;;4.57;;
65202;SDS011;51788;45.124;38.966;2023-11-19T03:07:43;4.35;;;4.05;;
65202;SDS011;51788;45.124;38.966;2023-11-19T03:10:10;9.00;;;4.90;;
65202;SDS011;51788;45.124;38.966;2023-11-19T03:12:39;5.47;;;5.03;;
65202;SDS011;51788;45.124;38.966;2023-11-19T03:15:07;4.82;;;4.43;;
65202;SDS011;51788;45.124;38.966;2023-11-19T03:17:38;6.28;;;5.78;;
65202;SDS011;51788;45.124;38.966;2023-11-19T03:20:06;7.60;;;4.82;;
65202;SDS011;51788;45.124;38.966;2023-11-19T03:22:38;4.93;;;4.53;;
65202;SDS011;51788;45.124;38.966;2023-11-19T03:25:07;4.55;;;4.15;;
65202;SDS011;51788;45.124;38.966;2023-11-19T03:27:34;4.40;;;4.00;;
65202;SDS011;51788;45.124;38.966;2023-11-19T03:30:09;4.20;;;3.90;;
65202;SDS011;51788;45.124;38.966;2023-11-19T03:32:36;5.45;;;4.18;;
65202;SDS011;51788;45.124;38.966;2023-11-19T03:35:04;4.47;;;4.10;;
65202;SDS011;51788;45.124;38.966;2023-11-19T03:37:33;6.50;;;4.25;;
65202;SDS011;51788;45.124;38.966;2023-11-19T03:39:59;4.07;;;3.35;;
65202;SDS011;51788;45.124;38.966;2023-11-19T03:42:27;3.50;;;3.30;;
65202;SDS011;51788;45.124;38.966;2023-11-19T03:44:53;3.28;;;3.05;;
65202;SDS011;51788;45.124;38.966;2023-11-19T03:47:20;3.40;;;3.10;;
65202;SDS011;51788;45.124;38.966;2023-11-19T03:49:48;2.42;;;2.33;;
65202;SDS011;51788;45.124;38.966;2023-11-19T03:52:15;2.88;;;2.70;;
65202;SDS011;51788;45.124;38.966;2023-11-19T03:54:42;3.58;;;3.28;;
65202;SDS011;51788;45.124;38.966;2023-11-19T03:57:08;4.53;;;4.13;;
65202;SDS011;51788;45.124;38.966;2023-11-19T03:59:36;4.90;;;4.50;;
65202;SDS011;51788;45.124;38.966;2023-11-19T04:02:02;7.88;;;4.70;;
65202;SDS011;51788;45.124;38.966;2023-11-19T04:04:29;4.43;;;4.00;;
65202;SDS011;51788;45.124;38.966;2023-11-19T04:06:55;3.85;;;3.65;;
65202;SDS011;51788;45.124;38.966;2023-11-19T04:09:21;3.95;;;3.65;;
65202;SDS011;51788;45.124;38.966;2023-11-19T04:11:48;4.65;;;3.53;;
65202;SDS011;51788;45.124;38.966;2023-11-19T04:14:14;3.38;;;3.08;;
65202;SDS011;51788;45.124;38.966;2023-11-19T04:16:40;3.03;;;2.83;;
65202;SDS011;51788;45.124;38.966;2023-11-19T04:19:07;4.03;;;2.83;;
65202;SDS011;51788;45.124;38.966;2023-11-19T04:21:33;2.30;;;2.10;;
65202;SDS011;51788;45.124;38.966;2023-11-19T04:23:59;2.65;;;2.45;;
65202;SDS011;51788;45.124;38.966;2023-11-19T04:26:24;2.38;;;2.28;;
65202;SDS011;51788;45.124;38.966;2023-11-19T04:28:51;2.38;;;2.17;;
65202;SDS011;51788;45.124;38.966;2023-11-19T04:31:19;2.20;;;2.10;;
65202;SDS011;51788;45.124;38.966;2023-11-19T04:33:45;2.15;;;1.90;;
65202;SDS011;51788;45.124;38.966;2023-11-19T04:36:12;2.17;;;2.08;;
65202;SDS011;51788;45.124;38.966;2023-11-19T04:38:39;2.20;;;2.10;;
65202;SDS011;51788;45.124;38.966;2023-11-19T04:41:05;2.95;;;2.08;;
65202;SDS011;51788;45.124;38.966;2023-11-19T04:43:31;1.70;;;1.60;;
65202;SDS011;51788;45.124;38.966;2023-11-19T04:45:57;2.30;;;2.10;;
65202;SDS011;51788;45.124;38.966;2023-11-19T04:48:24;2.13;;;1.92;;
65202;SDS011;51788;45.124;38.966;2023-11-19T04:50:50;2.90;;;1.85;;
65202;SDS011;51788;45.124;38.966;2023-11-19T04:53:19;2.70;;;2.53;;
65202;SDS011;51788;45.124;38.966;2023-11-19T04:55:45;2.40;;;2.30;;
65202;SDS011;51788;45.124;38.966;2023-11-19T04:58:11;2.88;;;2.67;;
65202;SDS011;51788;45.124;38.966;2023-11-19T05:00:37;2.38;;;2.28;;
65202;SDS011;51788;45.124;38.966;2023-11-19T05:03:03;2.10;;;2.00;;
65202;SDS011;51788;45.124;38.966;2023-11-19T05:05:29;2.80;;;2.30;;
65202;SDS011;51788;45.124;38.966;2023-11-19T05:07:55;3.05;;;2.30;;
65202;SDS011;51788;45.124;38.966;2023-11-19T05:10:21;3.20;;;2.83;;
65202;SDS011;51788;45.124;38.966;2023-11-19T05:12:47;3.58;;;2.47;;
65202;SDS011;51788;45.124;38.966;2023-11-19T05:15:13;2.55;;;2.45;;
65202;SDS011;51788;45.124;38.966;2023-11-19T05:17:39;3.17;;;2.97;;
65202;SDS011;51788;45.124;38.966;2023-11-19T05:20:05;2.78;;;2.58;;
65202;SDS011;51788;45.124;38.966;2023-11-19T05:22:39;5.78;;;3.03;;
65202;SDS011;51788;45.124;38.966;2023-11-19T05:25:06;2.80;;;2.70;;
65202;SDS011;51788;45.124;38.966;2023-11-19T05:27:32;5.40;;;3.67;;
65202;SDS011;51788;45.124;38.966;2023-11-19T05:29:58;6.05;;;3.13;;
65202;SDS011;51788;45.124;38.966;2023-11-19T05:32:24;4.25;;;3.78;;
65202;SDS011;51788;45.124;38.966;2023-11-19T05:34:51;3.40;;;3.13;;
65202;SDS011;51788;45.124;38.966;2023-11-19T05:37:17;3.60;;;3.28;;
65202;SDS011;51788;45.124;38.966;2023-11-19T05:39:44;8.43;;;3.40;;
65202;SDS011;51788;45.124;38.966;2023-11-19T05:42:10;2.67;;;2.55;;
65202;SDS011;51788;45.124;38.966;2023-11-19T05:44:36;3.42;;;3.20;;
65202;SDS011;51788;45.124;38.966;2023-11-19T05:47:03;5.45;;;3.70;;
65202;SDS011;51788;45.124;38.966;2023-11-19T05:49:29;3.10;;;2.80;;
65202;SDS011;51788;45.124;38.966;2023-11-19T05:51:55;4.22;;;3.92;;
65202;SDS011;51788;45.124;38.966;2023-11-19T05:54:21;4.20;;;3.13;;
65202;SDS011;51788;45.124;38.966;2023-11-19T05:56:48;4.97;;;4.03;;
65202;SDS011;51788;45.124;38.966;2023-11-19T05:59:14;3.70;;;3.40;;
65202;SDS011;51788;45.124;38.966;2023-11-19T06:01:43;4.50;;;3.50;;
65202;SDS011;51788;45.124;38.966;2023-11-19T06:04:09;4.68;;;4.20;;
65202;SDS011;51788;45.124;38.966;2023-11-19T06:06:35;4.20;;;3.90;;
65202;SDS011;51788;45.124;38.966;2023-11-19T06:09:02;4.28;;;3.97;;
65202;SDS011;51788;45.124;38.966;2023-11-19T06:11:29;3.67;;;3.45;;
65202;SDS011;51788;45.124;38.966;2023-11-19T06:13:55;4.47;;;4.15;;
65202;SDS011;51788;45.124;38.966;2023-11-19T06:16:21;5.03;;;4.53;;
65202;SDS011;51788;45.124;38.966;2023-11-19T06:18:47;4.82;;;3.90;;
65202;SDS011;51788;45.124;38.966;2023-11-19T06:21:13;6.03;;;3.58;;
65202;SDS011;51788;45.124;38.966;2023-11-19T06:23:39;5.45;;;4.07;;
65202;SDS011;51788;45.124;38.966;2023-11-19T06:26:05;4.00;;;3.75;;
65202;SDS011;51788;45.124;38.966;2023-11-19T06:28:31;4.78;;;4.40;;
65202;SDS011;51788;45.124;38.966;2023-11-19T06:30:58;4.88;;;3.65;;
65202;SDS011;51788;45.124;38.966;2023-11-19T06:33:24;4.50;;;4.18;;
65202;SDS011;51788;45.124;38.966;2023-11-19T06:35:50;3.50;;;3.17;;
65202;SDS011;51788;45.124;38.966;2023-11-19T06:38:17;4.40;;;4.10;;
65202;SDS011;51788;45.124;38.966;2023-11-19T06:40:43;4.55;;;4.15;;
65202;SDS011;51788;45.124;38.966;2023-11-19T06:43:09;4.25;;;3.92;;
65202;SDS011;51788;45.124;38.966;2023-11-19T06:45:35;6.18;;;4.72;;
65202;SDS011;51788;45.124;38.966;2023-11-19T06:48:04;7.82;;;3.85;;
65202;SDS011;51788;45.124;38.966;2023-11-19T06:50:31;6.75;;;4.82;;
65202;SDS011;51788;45.124;38.966;2023-11-19T06:52:57;4.18;;;3.85;;
65202;SDS011;51788;45.124;38.966;2023-11-19T06:55:23;4.72;;;4.32;;
65202;SDS011;51788;45.124;38.966;2023-11-19T06:57:49;4.75;;;4.35;;
65202;SDS011;51788;45.124;38.966;2023-11-19T07:00:15;4.72;;;4.32;;
65202;SDS011;51788;45.124;38.966;2023-11-19T07:02:42;4.25;;;3.95;;
65202;SDS011;51788;45.124;38.966;2023-11-19T07:05:09;6.13;;;4.43;;
65202;SDS011;51788;45.124;38.966;2023-11-19T07:07:37;4.15;;;3.63;;
65202;SDS011;51788;45.124;38.966;2023-11-19T07:10:03;4.15;;;3.72;;
65202;SDS011;51788;45.124;38.966;2023-11-19T07:12:31;4.45;;;4.13;;
65202;SDS011;51788;45.124;38.966;2023-11-19T07:14:57;4.50;;;4.20;;
65202;SDS011;51788;45.124;38.966;2023-11-19T07:17:23;4.55;;;4.15;;
65202;SDS011;51788;45.124;38.966;2023-11-19T07:19:49;4.93;;;4.50;;
65202;SDS011;51788;45.124;38.966;2023-11-19T07:22:15;4.40;;;3.97;;
65202;SDS011;51788;45.124;38.966;2023-11-19T07:24:41;4.32;;;3.92;;
65202;SDS011;51788;45.124;38.966;2023-11-19T07:27:08;4.32;;;3.95;;
65202;SDS011;51788;45.124;38.966;2023-11-19T07:29:37;4.95;;;4.43;;
65202;SDS011;51788;45.124;38.966;2023-11-19T07:32:03;26.65;;;14.88;;
65202;SDS011;51788;45.124;38.966;2023-11-19T07:34:30;22.10;;;14.60;;
65202;SDS011;51788;45.124;38.966;2023-11-19T07:36:56;9.50;;;8.63;;
65202;SDS011;51788;45.124;38.966;2023-11-19T07:39:28;5.15;;;4.40;;
65202;SDS011;51788;45.124;38.966;2023-11-19T07:41:54;4.85;;;4.55;;
65202;SDS011;51788;45.124;38.966;2023-11-19T07:44:20;5.10;;;4.70;;
65202;SDS011;51788;45.124;38.966;2023-11-19T07:46:46;4.78;;;4.38;;
65202;SDS011;51788;45.124;38.966;2023-11-19T07:49:13;11.20;;;9.30;;
65202;SDS011;51788;45.124;38.966;2023-11-19T07:51:39;13.85;;;11.20;;
65202;SDS011;51788;45.124;38.966;2023-11-19T07:54:05;15.63;;;11.45;;
65202;SDS011;51788;45.124;38.966;2023-11-19T07:56:32;11.20;;;9.25;;
65202;SDS011;51788;45.124;38.966;2023-11-19T07:59:02;6.20;;;5.00;;
65202;SDS011;51788;45.124;38.966;2023-11-19T08:01:28;7.72;;;6.93;;
65202;SDS011;51788;45.124;38.966;2023-11-19T08:03:54;9.85;;;5.22;;
65202;SDS011;51788;45.124;38.966;2023-11-19T08:06:20;6.30;;;5.80;;
65202;SDS011;51788;45.124;38.966;2023-11-19T08:08:46;4.20;;;3.90;;
65202;SDS011;51788;45.124;38.966;2023-11-19T08:11:13;4.63;;;4.15;;
65202;SDS011;51788;45.124;38.966;2023-11-19T08:13:40;3.28;;;3.08;;
65202;SDS011;51788;45.124;38.966;2023-11-19T08:16:07;6.63;;;4.25;;
65202;SDS011;51788;45.124;38.966;2023-11-19T08:18:33;12.25;;;8.43;;
65202;SDS011;51788;45.124;38.966;2023-11-19T08:20:59;4.63;;;4.22;;
65202;SDS011;51788;45.124;38.966;2023-11-19T08:23:26;4.60;;;4.15;;
65202;SDS011;51788;45.124;38.966;2023-11-19T08:25:54;9.85;;;4.35;;
65202;SDS011;51788;45.124;38.966;2023-11-19T08:28:19;3.30;;;3.05;;
65202;SDS011;51788;45.124;38.966;2023-11-19T08:30:46;5.10;;;3.55;;
65202;SDS011;51788;45.124;38.966;2023-11-19T08:33:12;8.30;;;3.35;;
65202;SDS011;51788;45.124;38.966;2023-11-19T08:35:38;4.10;;;3.45;;
65202;SDS011;51788;45.124;38.966;2023-11-19T08:38:04;4.55;;;3.80;;
65202;SDS011;51788;45.124;38.966;2023-11-19T08:40:30;4.15;;;3.70;;
65202;SDS011;51788;45.124;38.966;2023-11-19T08:42:56;4.10;;;3.80;;
65202;SDS011;51788;45.124;38.966;2023-11-19T08:45:23;4.75;;;4.45;;
65202;SDS011;51788;45.124;38.966;2023-11-19T08:47:49;5.20;;;4.78;;
65202;SDS011;51788;45.124;38.966;2023-11-19T08:50:15;5.53;;;4.57;;
65202;SDS011;51788;45.124;38.966;2023-11-19T08:52:41;7.05;;;6.45;;
65202;SDS011;51788;45.124;38.966;2023-11-19T08:55:07;6.32;;;5.80;;
65202;SDS011;51788;45.124;38.966;2023-11-19T08:57:35;6.95;;;5.30;;
65202;SDS011;51788;45.124;38.966;2023-11-19T09:00:01;5.75;;;5.05;;
65202;SDS011;51788;45.124;38.966;2023-11-19T09:02:33;6.82;;;5.03;;
65202;SDS011;51788;45.124;38.966;2023-11-19T09:05:00;6.47;;;5.05;;
65202;SDS011;51788;45.124;38.966;2023-11-19T09:07:27;5.55;;;5.05;;
65202;SDS011;51788;45.124;38.966;2023-11-19T09:09:53;7.95;;;4.82;;
65202;SDS011;51788;45.124;38.966;2023-11-19T09:12:19;5.60;;;5.00;;
65202;SDS011;51788;45.124;38.966;2023-11-19T09:14:45;4.93;;;4.43;;
65202;SDS011;51788;45.124;38.966;2023-11-19T09:17:11;6.70;;;4.70;;
65202;SDS011;51788;45.124;38.966;2023-11-19T09:19:37;5.10;;;4.70;;
65202;SDS011;51788;45.124;38.966;2023-11-19T09:22:03;4.70;;;3.88;;
65202;SDS011;51788;45.124;38.966;2023-11-19T09:24:29;5.88;;;5.38;;
65202;SDS011;51788;45.124;38.966;2023-11-19T09:26:55;5.47;;;4.72;;
65202;SDS011;51788;45.124;38.966;2023-11-19T09:29:21;8.20;;;6.10;;
65202;SDS011;51788;45.124;38.966;2023-11-19T09:31:47;6.50;;;5.90;;
65202;SDS011;51788;45.124;38.966;2023-11-19T09:34:13;4.05;;;3.72;;
65202;SDS011;51788;45.124;38.966;2023-11-19T09:36:39;5.47;;;4.50;;
65202;SDS011;51788;45.124;38.966;2023-11-19T09:39:12;5.65;;;5.25;;
65202;SDS011;51788;45.124;38.966;2023-11-19T09:41:40;5.47;;;4.95;;
65202;SDS011;51788;45.124;38.966;2023-11-19T09:44:07;5.97;;;5.28;;
65202;SDS011;51788;45.124;38.966;2023-11-19T09:46:35;6.32;;;4.38;;
65202;SDS011;51788;45.124;38.966;2023-11-19T09:49:02;5.45;;;4.95;;
65202;SDS011;51788;45.124;38.966;2023-11-19T09:51:30;5.47;;;4.93;;
65202;SDS011;51788;45.124;38.966;2023-11-19T09:53:56;2.95;;;2.75;;
65202;SDS011;51788;45.124;38.966;2023-11-19T09:56:22;4.15;;;3.78;;
65202;SDS011;51788;45.124;38.966;2023-11-19T09:58:48;4.03;;;3.72;;
65202;SDS011;51788;45.124;38.966;2023-11-19T10:01:15;6.65;;;4.13;;
65202;SDS011;51788;45.124;38.966;2023-11-19T10:03:41;13.48;;;4.43;;
65202;SDS011;51788;45.124;38.966;2023-11-19T10:06:09;7.07;;;5.88;;
65202;SDS011;51788;45.124;38.966;2023-11-19T10:08:37;6.05;;;5.45;;
65202;SDS011;51788;45.124;38.966;2023-11-19T10:11:07;7.32;;;6.05;;
65202;SDS011;51788;45.124;38.966;2023-11-19T10:13:36;6.35;;;5.47;;
65202;SDS011;51788;45.124;38.966;2023-11-19T10:16:08;15.25;;;9.32;;
65202;SDS011;51788;45.124;38.966;2023-11-19T10:18:47;13.63;;;8.77;;
65202;SDS011;51788;45.124;38.966;2023-11-19T10:21:18;9.13;;;5.43;;
65202;SDS011;51788;45.124;38.966;2023-11-19T10:26:15;4.95;;;4.30;;
65202;SDS011;51788;45.124;38.966;2023-11-19T10:28:41;6.40;;;4.13;;
65202;SDS011;51788;45.124;38.966;2023-11-19T10:31:09;3.58;;;3.28;;
65202;SDS011;51788;45.124;38.966;2023-11-19T10:33:35;3.67;;;2.95;;
65202;SDS011;51788;45.124;38.966;2023-11-19T10:36:01;3.95;;;3.53;;
65202;SDS011;51788;45.124;38.966;2023-11-19T10:38:27;3.83;;;3.53;;
65202;SDS011;51788;45.124;38.966;2023-11-19T10:40:53;4.10;;;3.70;;
65202;SDS011;51788;45.124;38.966;2023-11-19T10:43:20;4.55;;;4.15;;
65202;SDS011;51788;45.124;38.966;2023-11-19T10:45:51;6.82;;;4.65;;
65202;SDS011;51788;45.124;38.966;2023-11-19T10:48:17;7.82;;;6.35;;
65202;SDS011;51788;45.124;38.966;2023-11-19T10:50:44;18.90;;;10.90;;
65202;SDS011;51788;45.124;38.966;2023-11-19T10:53:11;10.18;;;8.18;;
65202;SDS011;51788;45.124;38.966;2023-11-19T10:55:41;17.05;;;14.32;;
65202;SDS011;51788;45.124;38.966;2023-11-19T10:58:12;24.30;;;16.98;;
65202;SDS011;51788;45.124;38.966;2023-11-19T11:03:18;14.63;;;11.93;;
65202;SDS011;51788;45.124;38.966;2023-11-19T11:05:49;8.32;;;7.53;;
65202;SDS011;51788;45.124;38.966;2023-11-19T11:08:16;8.95;;;5.38;;
65202;SDS011;51788;45.124;38.966;2023-11-19T11:10:44;5.80;;;5.30;;
65202;SDS011;51788;45.124;38.966;2023-11-19T11:13:18;6.18;;;5.32;;
65202;SDS011;51788;45.124;38.966;2023-11-19T11:15:45;7.97;;;5.85;;
65202;SDS011;51788;45.124;38.966;2023-11-19T11:18:12;7.68;;;6.88;;
65202;SDS011;51788;45.124;38.966;2023-11-19T11:20:38;10.60;;;6.82;;
65202;SDS011;51788;45.124;38.966;2023-11-19T11:23:11;7.63;;;6.60;;
65202;SDS011;51788;45.124;38.966;2023-11-19T11:39:46;12.10;;;6.55;;
65202;SDS011;51788;45.124;38.966;2023-11-19T11:50:24;7.13;;;6.43;;
65202;SDS011;51788;45.124;38.966;2023-11-19T11:55:24;6.32;;;5.15;;
65202;SDS011;51788;45.124;38.966;2023-11-19T11:58:21;8.32;;;6.53;;
65202;SDS011;51788;45.124;38.966;2023-11-19T12:00:57;8.27;;;6.32;;
65202;SDS011;51788;45.124;38.966;2023-11-19T12:03:26;9.95;;;6.78;;
65202;SDS011;51788;45.124;38.966;2023-11-19T12:05:54;11.05;;;5.93;;
65202;SDS011;51788;45.124;38.966;2023-11-19T12:08:24;5.65;;;4.70;;
65202;SDS011;51788;45.124;38.966;2023-11-19T12:10:53;6.82;;;6.07;;
65202;SDS011;51788;45.124;38.966;2023-11-19T12:16:24;6.97;;;6.35;;
65202;SDS011;51788;45.124;38.966;2023-11-19T12:18:53;7.10;;;6.22;;
65202;SDS011;51788;45.124;38.966;2023-11-19T12:21:30;5.88;;;5.15;;
65202;SDS011;51788;45.124;38.966;2023-11-19T12:23:57;7.20;;;5.78;;
65202;SDS011;51788;45.124;38.966;2023-11-19T12:26:33;7.68;;;6.88;;
65202;SDS011;51788;45.124;38.966;2023-11-19T12:28:59;7.30;;;5.95;;
65202;SDS011;51788;45.124;38.966;2023-11-19T12:31:26;6.38;;;5.78;;
65202;SDS011;51788;45.124;38.966;2023-11-19T12:33:52;6.13;;;5.63;;
65202;SDS011;51788;45.124;38.966;2023-11-19T12:36:19;6.97;;;5.60;;
65202;SDS011;51788;45.124;38.966;2023-11-19T12:38:45;10.23;;;6.75;;
65202;SDS011;51788;45.124;38.966;2023-11-19T12:41:11;7.50;;;5.45;;
65202;SDS011;51788;45.124;38.966;2023-11-19T12:43:38;7.70;;;6.50;;
65202;SDS011;51788;45.124;38.966;2023-11-19T12:46:18;7.63;;;6.88;;
65202;SDS011;51788;45.124;38.966;2023-11-19T12:51:14;9.30;;;6.50;;
65202;SDS011;51788;45.124;38.966;2023-11-19T12:53:48;6.72;;;6.13;;
65202;SDS011;51788;45.124;38.966;2023-11-19T12:56:16;7.45;;;6.68;;
65202;SDS011;51788;45.124;38.966;2023-11-19T12:58:42;9.23;;;7.40;;
65202;SDS011;51788;45.124;38.966;2023-11-19T13:01:08;8.38;;;7.03;;
65202;SDS011;51788;45.124;38.966;2023-11-19T13:03:37;7.15;;;6.57;;
65202;SDS011;51788;45.124;38.966;2023-11-19T13:08:49;7.40;;;6.80;;
65202;SDS011;51788;45.124;38.966;2023-11-19T13:11:30;9.20;;;7.10;;
65202;SDS011;51788;45.124;38.966;2023-11-19T13:13:58;6.28;;;5.78;;
65202;SDS011;51788;45.124;38.966;2023-11-19T13:16:26;12.15;;;7.82;;
65202;SDS011;51788;45.124;38.966;2023-11-19T13:18:53;10.38;;;7.50;;
65202;SDS011;51788;45.124;38.966;2023-11-19T13:21:20;10.90;;;7.00;;
65202;SDS011;51788;45.124;38.966;2023-11-19T13:23:46;6.95;;;6.25;;
65202;SDS011;51788;45.124;38.966;2023-11-19T13:26:12;6.03;;;5.43;;
65202;SDS011;51788;45.124;38.966;2023-11-19T13:28:38;5.97;;;5.20;;
65202;SDS011;51788;45.124;38.966;2023-11-19T13:31:05;5.82;;;5.30;;
65202;SDS011;51788;45.124;38.966;2023-11-19T13:33:31;9.02;;;5.10;;
65202;SDS011;51788;45.124;38.966;2023-11-19T13:35:57;6.65;;;5.50;;
65202;SDS011;51788;45.124;38.966;2023-11-19T13:38:23;5.50;;;4.85;;
65202;SDS011;51788;45.124;38.966;2023-11-19T13:40:49;7.63;;;6.90;;
65202;SDS011;51788;45.124;38.966;2023-11-19T13:43:16;5.88;;;5.32;;
65202;SDS011;51788;45.124;38.966;2023-11-19T13:45:42;7.53;;;5.65;;
65202;SDS011;51788;45.124;38.966;2023-11-19T13:48:08;11.15;;;8.73;;
65202;SDS011;51788;45.124;38.966;2023-11-19T13:50:34;5.95;;;5.45;;
65202;SDS011;51788;45.124;38.966;2023-11-19T13:53:00;5.07;;;4.57;;
65202;SDS011;51788;45.124;38.966;2023-11-19T13:55:26;4.68;;;4.22;;
65202;SDS011;51788;45.124;38.966;2023-11-19T13:57:52;5.72;;;5.13;;
65202;SDS011;51788;45.124;38.966;2023-11-19T14:00:18;4.90;;;4.40;;
65202;SDS011;51788;45.124;38.966;2023-11-19T14:02:45;6.88;;;4.60;;
65202;SDS011;51788;45.124;38.966;2023-11-19T14:05:15;7.20;;;6.13;;
65202;SDS011;51788;45.124;38.966;2023-11-19T14:07:44;5.95;;;4.82;;
65202;SDS011;51788;45.124;38.966;2023-11-19T14:10:14;5.85;;;4.78;;
65202;SDS011;51788;45.124;38.966;2023-11-19T14:12:40;6.03;;;5.43;;
65202;SDS011;51788;45.124;38.966;2023-11-19T14:15:08;9.07;;;6.43;;
65202;SDS011;51788;45.124;38.966;2023-11-19T14:17:38;8.48;;;7.07;;
65202;SDS011;51788;45.124;38.966;2023-11-19T14:20:05;8.80;;;5.20;;
65202;SDS011;51788;45.124;38.966;2023-11-19T14:22:49;6.03;;;5.00;;
65202;SDS011;51788;45.124;38.966;2023-11-19T14:25:17;5.88;;;5.38;;
65202;SDS011;51788;45.124;38.966;2023-11-19T14:27:43;6.43;;;5.60;;
65202;SDS011;51788;45.124;38.966;2023-11-19T14:30:11;4.88;;;4.47;;
65202;SDS011;51788;45.124;38.966;2023-11-19T14:32:39;5.88;;;5.20;;
65202;SDS011;51788;45.124;38.966;2023-11-19T14:35:08;5.80;;;5.05;;
65202;SDS011;51788;45.124;38.966;2023-11-19T14:37:34;5.35;;;4.85;;
65202;SDS011;51788;45.124;38.966;2023-11-19T14:40:00;4.57;;;3.90;;
65202;SDS011;51788;45.124;38.966;2023-11-19T14:42:29;5.55;;;5.07;;
65202;SDS011;51788;45.124;38.966;2023-11-19T14:44:55;7.38;;;5.50;;
65202;SDS011;51788;45.124;38.966;2023-11-19T14:47:21;5.95;;;4.85;;
65202;SDS011;51788;45.124;38.966;2023-11-19T14:49:48;5.85;;;5.13;;
65202;SDS011;51788;45.124;38.966;2023-11-19T14:52:14;6.82;;;6.22;;
65202;SDS011;51788;45.124;38.966;2023-11-19T14:54:40;8.40;;;7.40;;
65202;SDS011;51788;45.124;38.966;2023-11-19T14:57:06;9.68;;;8.25;;
65202;SDS011;51788;45.124;38.966;2023-11-19T14:59:36;9.00;;;7.05;;
65202;SDS011;51788;45.124;38.966;2023-11-19T15:02:03;9.27;;;6.43;;
65202;SDS011;51788;45.124;38.966;2023-11-19T15:04:30;7.28;;;6.63;;
65202;SDS011;51788;45.124;38.966;2023-11-19T15:06:59;6.18;;;5.65;;
65202;SDS011;51788;45.124;38.966;2023-11-19T15:09:26;7.10;;;6.40;;
65202;SDS011;51788;45.124;38.966;2023-11-19T15:11:55;8.60;;;7.70;;
65202;SDS011;51788;45.124;38.966;2023-11-19T15:14:23;8.48;;;7.45;;